sensor_id;sensor_type;location;lat;lon;timestamp;P1;durP1;ratioP1;P2;durP2;ratioP2
4961;SDS011;2496;52.468;13.342;2022-08-01T00:02:12;8.53;;;4.10;;
4961;SDS011;2496;52.468;13.342;2022-08-01T00:04:39;7.20;;;4.70;;
4961;SDS011;2496;52.468;13.342;2022-08-01T00:07:06;9.10;;;4.47;;
4961;SDS011;2496;52.468;13.342;2022-08-01T00:09:33;5.17;;;4.30;;
4961;SDS011;2496;52.468;13.342;2022-08-01T00:12:00;6.00;;;4.50;;
4961;SDS011;2496;52.468;13.342;2022-08-01T00:14:30;5.23;;;4.30;;
4961;SDS011;2496;52.468;13.342;2022-08-01T00:16:57;6.00;;;4.30;;
4961;SDS011;2496;52.468;13.342;2022-08-01T00:19:26;5.03;;;4.53;;
4961;SDS011;2496;52.468;13.342;2022-08-01T00:21:53;6.27;;;5.00;;
4961;SDS011;2496;52.468;13.342;2022-08-01T00:24:23;6.50;;;4.77;;
4961;SDS011;2496;52.468;13.342;2022-08-01T00:26:50;6.07;;;4.60;;
4961;SDS011;2496;52.468;13.342;2022-08-01T00:29:16;12.70;;;5.60;;
4961;SDS011;2496;52.468;13.342;2022-08-01T00:31:43;6.30;;;5.50;;
4961;SDS011;2496;52.468;13.342;2022-08-01T00:34:10;7.43;;;3.93;;
4961;SDS011;2496;52.468;13.342;2022-08-01T00:36:39;5.47;;;4.77;;
4961;SDS011;2496;52.468;13.342;2022-08-01T00:39:06;6.30;;;5.27;;
4961;SDS011;2496;52.468;13.342;2022-08-01T00:41:33;5.60;;;5.10;;
4961;SDS011;2496;52.468;13.342;2022-08-01T00:44:01;7.90;;;4.93;;
4961;SDS011;2496;52.468;13.342;2022-08-01T00:46:29;5.93;;;4.70;;
4961;SDS011;2496;52.468;13.342;2022-08-01T00:48:56;7.10;;;4.97;;
4961;SDS011;2496;52.468;13.342;2022-08-01T00:51:24;6.10;;;5.50;;
4961;SDS011;2496;52.468;13.342;2022-08-01T00:53:52;7.80;;;5.20;;
4961;SDS011;2496;52.468;13.342;2022-08-01T00:56:20;6.13;;;5.00;;
4961;SDS011;2496;52.468;13.342;2022-08-01T00:58:50;5.90;;;4.93;;
4961;SDS011;2496;52.468;13.342;2022-08-01T01:01:17;4.90;;;4.40;;
4961;SDS011;2496;52.468;13.342;2022-08-01T01:03:45;6.57;;;5.10;;
4961;SDS011;2496;52.468;13.342;2022-08-01T01:06:20;5.60;;;5.10;;
4961;SDS011;2496;52.468;13.342;2022-08-01T01:08:55;6.23;;;5.40;;
4961;SDS011;2496;52.468;13.342;2022-08-01T01:11:32;8.53;;;5.30;;
4961;SDS011;2496;52.468;13.342;2022-08-01T01:14:07;7.70;;;5.27;;
4961;SDS011;2496;52.468;13.342;2022-08-01T01:16:39;6.40;;;5.17;;
4961;SDS011;2496;52.468;13.342;2022-08-01T01:19:09;8.73;;;5.50;;
4961;SDS011;2496;52.468;13.342;2022-08-01T01:21:55;6.67;;;5.30;;
4961;SDS011;2496;52.468;13.342;2022-08-01T01:24:36;4.80;;;4.40;;
4961;SDS011;2496;52.468;13.342;2022-08-01T01:27:13;7.60;;;4.70;;
4961;SDS011;2496;52.468;13.342;2022-08-01T01:29:51;6.40;;;4.80;;
4961;SDS011;2496;52.468;13.342;2022-08-01T01:32:22;5.47;;;4.97;;
4961;SDS011;2496;52.468;13.342;2022-08-01T01:34:54;5.03;;;4.53;;
4961;SDS011;2496;52.468;13.342;2022-08-01T01:37:23;11.23;;;5.53;;
4961;SDS011;2496;52.468;13.342;2022-08-01T01:39:53;5.50;;;4.23;;
4961;SDS011;2496;52.468;13.342;2022-08-01T01:42:21;9.03;;;4.63;;
4961;SDS011;2496;52.468;13.342;2022-08-01T01:44:52;6.37;;;4.53;;
4961;SDS011;2496;52.468;13.342;2022-08-01T01:47:21;7.80;;;4.57;;
4961;SDS011;2496;52.468;13.342;2022-08-01T01:49:49;6.13;;;4.70;;
4961;SDS011;2496;52.468;13.342;2022-08-01T01:52:17;6.57;;;5.00;;
4961;SDS011;2496;52.468;13.342;2022-08-01T01:54:46;5.10;;;4.60;;
4961;SDS011;2496;52.468;13.342;2022-08-01T01:57:15;5.83;;;5.33;;
4961;SDS011;2496;52.468;13.342;2022-08-01T01:59:44;5.83;;;5.27;;
4961;SDS011;2496;52.468;13.342;2022-08-01T02:02:15;5.60;;;5.00;;
4961;SDS011;2496;52.468;13.342;2022-08-01T02:04:44;6.90;;;5.43;;
4961;SDS011;2496;52.468;13.342;2022-08-01T02:07:13;7.30;;;5.70;;
4961;SDS011;2496;52.468;13.342;2022-08-01T02:09:43;6.60;;;5.20;;
4961;SDS011;2496;52.468;13.342;2022-08-01T02:12:12;6.37;;;4.83;;
4961;SDS011;2496;52.468;13.342;2022-08-01T02:14:40;5.77;;;4.97;;
4961;SDS011;2496;52.468;13.342;2022-08-01T02:17:10;7.67;;;5.20;;
4961;SDS011;2496;52.468;13.342;2022-08-01T02:19:39;6.17;;;5.57;;
4961;SDS011;2496;52.468;13.342;2022-08-01T02:22:08;7.17;;;6.10;;
4961;SDS011;2496;52.468;13.342;2022-08-01T02:24:38;9.50;;;5.90;;
4961;SDS011;2496;52.468;13.342;2022-08-01T02:27:09;7.80;;;4.90;;
4961;SDS011;2496;52.468;13.342;2022-08-01T02:29:39;15.23;;;5.30;;
4961;SDS011;2496;52.468;13.342;2022-08-01T02:32:10;5.77;;;5.17;;
4961;SDS011;2496;52.468;13.342;2022-08-01T02:34:43;8.00;;;5.53;;
4961;SDS011;2496;52.468;13.342;2022-08-01T02:37:15;5.77;;;4.53;;
4961;SDS011;2496;52.468;13.342;2022-08-01T02:39:43;6.27;;;5.67;;
4961;SDS011;2496;52.468;13.342;2022-08-01T02:42:12;6.00;;;5.40;;
4961;SDS011;2496;52.468;13.342;2022-08-01T02:44:41;6.17;;;5.37;;
4961;SDS011;2496;52.468;13.342;2022-08-01T02:47:10;5.83;;;5.23;;
4961;SDS011;2496;52.468;13.342;2022-08-01T02:49:41;6.27;;;5.67;;
4961;SDS011;2496;52.468;13.342;2022-08-01T02:52:13;6.20;;;5.60;;
4961;SDS011;2496;52.468;13.342;2022-08-01T02:54:43;6.70;;;5.37;;
4961;SDS011;2496;52.468;13.342;2022-08-01T02:57:11;6.30;;;5.70;;
4961;SDS011;2496;52.468;13.342;2022-08-01T02:59:39;6.50;;;5.30;;
4961;SDS011;2496;52.468;13.342;2022-08-01T03:02:08;6.47;;;5.67;;
4961;SDS011;2496;52.468;13.342;2022-08-01T03:04:39;6.00;;;5.40;;
4961;SDS011;2496;52.468;13.342;2022-08-01T03:07:10;6.13;;;5.53;;
4961;SDS011;2496;52.468;13.342;2022-08-01T03:09:39;6.57;;;5.67;;
4961;SDS011;2496;52.468;13.342;2022-08-01T03:12:11;5.80;;;5.20;;
4961;SDS011;2496;52.468;13.342;2022-08-01T03:14:43;7.47;;;6.57;;
4961;SDS011;2496;52.468;13.342;2022-08-01T03:17:12;8.80;;;5.83;;
4961;SDS011;2496;52.468;13.342;2022-08-01T03:19:41;7.80;;;5.90;;
4961;SDS011;2496;52.468;13.342;2022-08-01T03:22:14;6.93;;;5.30;;
4961;SDS011;2496;52.468;13.342;2022-08-01T03:24:45;9.00;;;5.20;;
4961;SDS011;2496;52.468;13.342;2022-08-01T03:27:19;8.80;;;5.63;;
4961;SDS011;2496;52.468;13.342;2022-08-01T03:29:52;5.77;;;5.23;;
4961;SDS011;2496;52.468;13.342;2022-08-01T03:32:23;8.77;;;6.10;;
4961;SDS011;2496;52.468;13.342;2022-08-01T03:34:54;7.27;;;5.00;;
4961;SDS011;2496;52.468;13.342;2022-08-01T03:37:25;6.37;;;5.40;;
4961;SDS011;2496;52.468;13.342;2022-08-01T03:39:58;6.53;;;4.87;;
4961;SDS011;2496;52.468;13.342;2022-08-01T03:42:34;10.00;;;5.43;;
4961;SDS011;2496;52.468;13.342;2022-08-01T03:45:08;7.77;;;5.70;;
4961;SDS011;2496;52.468;13.342;2022-08-01T03:47:44;5.03;;;4.60;;
4961;SDS011;2496;52.468;13.342;2022-08-01T03:50:15;7.10;;;5.83;;
4961;SDS011;2496;52.468;13.342;2022-08-01T03:52:47;5.83;;;4.50;;
4961;SDS011;2496;52.468;13.342;2022-08-01T03:55:18;6.20;;;5.60;;
4961;SDS011;2496;52.468;13.342;2022-08-01T03:57:46;7.70;;;5.80;;
4961;SDS011;2496;52.468;13.342;2022-08-01T04:00:15;9.17;;;5.47;;
4961;SDS011;2496;52.468;13.342;2022-08-01T04:02:43;5.33;;;4.83;;
4961;SDS011;2496;52.468;13.342;2022-08-01T04:05:12;7.80;;;6.03;;
4961;SDS011;2496;52.468;13.342;2022-08-01T04:07:39;6.80;;;5.37;;
4961;SDS011;2496;52.468;13.342;2022-08-01T04:10:10;5.90;;;5.30;;
4961;SDS011;2496;52.468;13.342;2022-08-01T04:12:37;6.57;;;5.90;;
4961;SDS011;2496;52.468;13.342;2022-08-01T04:15:05;7.73;;;5.80;;
4961;SDS011;2496;52.468;13.342;2022-08-01T04:17:32;9.20;;;7.17;;
4961;SDS011;2496;52.468;13.342;2022-08-01T04:19:59;8.00;;;6.83;;
4961;SDS011;2496;52.468;13.342;2022-08-01T04:22:26;7.60;;;6.60;;
4961;SDS011;2496;52.468;13.342;2022-08-01T04:24:53;10.83;;;7.10;;
4961;SDS011;2496;52.468;13.342;2022-08-01T04:27:27;9.53;;;7.03;;
4961;SDS011;2496;52.468;13.342;2022-08-01T04:29:58;10.57;;;7.47;;
4961;SDS011;2496;52.468;13.342;2022-08-01T04:32:28;9.90;;;7.20;;
4961;SDS011;2496;52.468;13.342;2022-08-01T04:35:00;8.67;;;6.70;;
4961;SDS011;2496;52.468;13.342;2022-08-01T04:37:31;11.83;;;7.20;;
4961;SDS011;2496;52.468;13.342;2022-08-01T04:39:58;10.70;;;7.90;;
4961;SDS011;2496;52.468;13.342;2022-08-01T04:42:28;9.23;;;7.40;;
4961;SDS011;2496;52.468;13.342;2022-08-01T04:44:55;9.83;;;7.40;;
4961;SDS011;2496;52.468;13.342;2022-08-01T04:47:23;9.50;;;7.37;;
4961;SDS011;2496;52.468;13.342;2022-08-01T04:49:51;8.63;;;7.73;;
4961;SDS011;2496;52.468;13.342;2022-08-01T04:52:22;10.53;;;7.93;;
4961;SDS011;2496;52.468;13.342;2022-08-01T04:55:00;9.80;;;8.60;;
4961;SDS011;2496;52.468;13.342;2022-08-01T04:57:32;12.90;;;9.13;;
4961;SDS011;2496;52.468;13.342;2022-08-01T05:00:04;11.77;;;9.60;;
4961;SDS011;2496;52.468;13.342;2022-08-01T05:02:36;9.47;;;7.83;;
4961;SDS011;2496;52.468;13.342;2022-08-01T05:05:06;11.63;;;8.37;;
4961;SDS011;2496;52.468;13.342;2022-08-01T05:07:36;8.90;;;8.00;;
4961;SDS011;2496;52.468;13.342;2022-08-01T05:10:06;9.43;;;7.10;;
4961;SDS011;2496;52.468;13.342;2022-08-01T05:12:37;8.57;;;7.70;;
4961;SDS011;2496;52.468;13.342;2022-08-01T05:15:06;10.53;;;8.50;;
4961;SDS011;2496;52.468;13.342;2022-08-01T05:17:35;9.53;;;8.23;;
4961;SDS011;2496;52.468;13.342;2022-08-01T05:20:02;13.57;;;10.17;;
4961;SDS011;2496;52.468;13.342;2022-08-01T05:22:31;10.50;;;8.10;;
4961;SDS011;2496;52.468;13.342;2022-08-01T05:24:58;9.80;;;8.27;;
4961;SDS011;2496;52.468;13.342;2022-08-01T05:27:26;10.87;;;8.07;;
4961;SDS011;2496;52.468;13.342;2022-08-01T05:29:58;8.83;;;7.30;;
4961;SDS011;2496;52.468;13.342;2022-08-01T05:32:27;9.30;;;7.23;;
4961;SDS011;2496;52.468;13.342;2022-08-01T05:34:57;9.47;;;7.53;;
4961;SDS011;2496;52.468;13.342;2022-08-01T05:37:26;8.77;;;7.87;;
4961;SDS011;2496;52.468;13.342;2022-08-01T05:39:56;8.93;;;7.57;;
4961;SDS011;2496;52.468;13.342;2022-08-01T05:42:25;9.63;;;8.00;;
4961;SDS011;2496;52.468;13.342;2022-08-01T05:44:53;6.73;;;6.03;;
4961;SDS011;2496;52.468;13.342;2022-08-01T05:47:24;7.70;;;6.90;;
4961;SDS011;2496;52.468;13.342;2022-08-01T05:49:55;7.30;;;6.60;;
4961;SDS011;2496;52.468;13.342;2022-08-01T05:52:25;10.67;;;6.23;;
4961;SDS011;2496;52.468;13.342;2022-08-01T05:54:54;7.20;;;6.50;;
4961;SDS011;2496;52.468;13.342;2022-08-01T05:57:23;28.57;;;7.07;;
4961;SDS011;2496;52.468;13.342;2022-08-01T05:59:50;7.50;;;6.43;;
4961;SDS011;2496;52.468;13.342;2022-08-01T06:02:19;8.73;;;7.53;;
4961;SDS011;2496;52.468;13.342;2022-08-01T06:04:49;9.10;;;7.73;;
4961;SDS011;2496;52.468;13.342;2022-08-01T06:07:17;11.30;;;8.00;;
4961;SDS011;2496;52.468;13.342;2022-08-01T06:09:46;8.60;;;7.37;;
4961;SDS011;2496;52.468;13.342;2022-08-01T06:12:14;8.10;;;6.67;;
4961;SDS011;2496;52.468;13.342;2022-08-01T06:14:41;10.57;;;7.10;;
4961;SDS011;2496;52.468;13.342;2022-08-01T06:17:08;7.47;;;5.70;;
4961;SDS011;2496;52.468;13.342;2022-08-01T06:19:34;9.87;;;7.50;;
4961;SDS011;2496;52.468;13.342;2022-08-01T06:22:03;8.33;;;6.07;;
4961;SDS011;2496;52.468;13.342;2022-08-01T06:24:30;9.50;;;7.13;;
4961;SDS011;2496;52.468;13.342;2022-08-01T06:26:57;10.70;;;6.90;;
4961;SDS011;2496;52.468;13.342;2022-08-01T06:29:23;7.40;;;6.80;;
4961;SDS011;2496;52.468;13.342;2022-08-01T06:31:50;8.23;;;6.40;;
4961;SDS011;2496;52.468;13.342;2022-08-01T06:34:18;10.20;;;6.87;;
4961;SDS011;2496;52.468;13.342;2022-08-01T06:36:46;8.70;;;7.17;;
4961;SDS011;2496;52.468;13.342;2022-08-01T06:39:14;8.60;;;6.50;;
4961;SDS011;2496;52.468;13.342;2022-08-01T06:41:41;7.27;;;6.40;;
4961;SDS011;2496;52.468;13.342;2022-08-01T06:44:11;5.83;;;5.30;;
4961;SDS011;2496;52.468;13.342;2022-08-01T06:46:38;7.63;;;5.47;;
4961;SDS011;2496;52.468;13.342;2022-08-01T06:49:04;7.30;;;5.40;;
4961;SDS011;2496;52.468;13.342;2022-08-01T06:51:31;5.87;;;5.30;;
4961;SDS011;2496;52.468;13.342;2022-08-01T06:53:58;6.20;;;5.60;;
4961;SDS011;2496;52.468;13.342;2022-08-01T06:56:27;5.63;;;5.00;;
4961;SDS011;2496;52.468;13.342;2022-08-01T06:58:54;6.93;;;5.40;;
4961;SDS011;2496;52.468;13.342;2022-08-01T07:01:25;9.40;;;4.00;;
4961;SDS011;2496;52.468;13.342;2022-08-01T07:03:52;15.43;;;4.90;;
4961;SDS011;2496;52.468;13.342;2022-08-01T07:06:19;5.50;;;4.33;;
4961;SDS011;2496;52.468;13.342;2022-08-01T07:08:47;6.53;;;4.80;;
4961;SDS011;2496;52.468;13.342;2022-08-01T07:11:14;5.40;;;4.00;;
4961;SDS011;2496;52.468;13.342;2022-08-01T07:13:42;4.30;;;3.90;;
4961;SDS011;2496;52.468;13.342;2022-08-01T07:16:10;4.93;;;4.43;;
4961;SDS011;2496;52.468;13.342;2022-08-01T07:18:37;5.07;;;4.00;;
4961;SDS011;2496;52.468;13.342;2022-08-01T07:21:04;5.73;;;3.50;;
4961;SDS011;2496;52.468;13.342;2022-08-01T07:23:31;3.97;;;3.57;;
4961;SDS011;2496;52.468;13.342;2022-08-01T07:25:58;4.37;;;3.90;;
4961;SDS011;2496;52.468;13.342;2022-08-01T07:28:26;4.37;;;3.97;;
4961;SDS011;2496;52.468;13.342;2022-08-01T07:30:54;5.23;;;3.50;;
4961;SDS011;2496;52.468;13.342;2022-08-01T07:33:21;4.40;;;4.00;;
4961;SDS011;2496;52.468;13.342;2022-08-01T07:35:48;4.50;;;3.57;;
4961;SDS011;2496;52.468;13.342;2022-08-01T07:38:15;10.33;;;3.73;;
4961;SDS011;2496;52.468;13.342;2022-08-01T07:40:42;4.03;;;3.37;;
4961;SDS011;2496;52.468;13.342;2022-08-01T07:43:10;5.17;;;4.67;;
4961;SDS011;2496;52.468;13.342;2022-08-01T07:45:36;5.37;;;4.30;;
4961;SDS011;2496;52.468;13.342;2022-08-01T07:48:05;6.50;;;5.17;;
4961;SDS011;2496;52.468;13.342;2022-08-01T07:50:33;7.30;;;4.67;;
4961;SDS011;2496;52.468;13.342;2022-08-01T07:53:00;5.27;;;3.93;;
4961;SDS011;2496;52.468;13.342;2022-08-01T07:55:27;5.07;;;4.57;;
4961;SDS011;2496;52.468;13.342;2022-08-01T07:57:54;5.30;;;4.73;;
4961;SDS011;2496;52.468;13.342;2022-08-01T08:00:21;4.67;;;4.27;;
4961;SDS011;2496;52.468;13.342;2022-08-01T08:02:48;7.13;;;4.63;;
4961;SDS011;2496;52.468;13.342;2022-08-01T08:05:16;6.53;;;4.40;;
4961;SDS011;2496;52.468;13.342;2022-08-01T08:07:44;5.33;;;4.73;;
4961;SDS011;2496;52.468;13.342;2022-08-01T08:10:11;7.13;;;6.30;;
4961;SDS011;2496;52.468;13.342;2022-08-01T08:12:38;6.63;;;5.50;;
4961;SDS011;2496;52.468;13.342;2022-08-01T08:15:05;5.87;;;5.27;;
4961;SDS011;2496;52.468;13.342;2022-08-01T08:17:32;6.77;;;5.43;;
4961;SDS011;2496;52.468;13.342;2022-08-01T08:20:00;6.43;;;5.83;;
4961;SDS011;2496;52.468;13.342;2022-08-01T08:22:29;6.37;;;5.53;;
4961;SDS011;2496;52.468;13.342;2022-08-01T08:24:55;10.63;;;5.73;;
4961;SDS011;2496;52.468;13.342;2022-08-01T08:27:22;6.67;;;5.57;;
4961;SDS011;2496;52.468;13.342;2022-08-01T08:29:49;10.43;;;5.70;;
4961;SDS011;2496;52.468;13.342;2022-08-01T08:32:17;5.90;;;5.30;;
4961;SDS011;2496;52.468;13.342;2022-08-01T08:34:44;5.97;;;5.20;;
4961;SDS011;2496;52.468;13.342;2022-08-01T08:37:11;5.80;;;5.10;;
4961;SDS011;2496;52.468;13.342;2022-08-01T08:39:39;5.10;;;4.20;;
4961;SDS011;2496;52.468;13.342;2022-08-01T08:42:06;4.03;;;3.60;;
4961;SDS011;2496;52.468;13.342;2022-08-01T08:44:35;5.10;;;4.10;;
4961;SDS011;2496;52.468;13.342;2022-08-01T08:47:03;6.90;;;4.63;;
4961;SDS011;2496;52.468;13.342;2022-08-01T08:49:33;3.73;;;3.33;;
4961;SDS011;2496;52.468;13.342;2022-08-01T08:52:01;4.07;;;3.23;;
4961;SDS011;2496;52.468;13.342;2022-08-01T08:54:29;3.50;;;2.73;;
4961;SDS011;2496;52.468;13.342;2022-08-01T08:56:59;4.93;;;2.50;;
4961;SDS011;2496;52.468;13.342;2022-08-01T08:59:27;7.70;;;3.10;;
4961;SDS011;2496;52.468;13.342;2022-08-01T09:01:55;2.47;;;2.13;;
4961;SDS011;2496;52.468;13.342;2022-08-01T09:04:22;2.40;;;2.20;;
4961;SDS011;2496;52.468;13.342;2022-08-01T09:06:49;4.53;;;2.57;;
4961;SDS011;2496;52.468;13.342;2022-08-01T09:09:16;3.10;;;2.67;;
4961;SDS011;2496;52.468;13.342;2022-08-01T09:11:43;9.47;;;2.70;;
4961;SDS011;2496;52.468;13.342;2022-08-01T09:14:12;2.43;;;2.23;;
4961;SDS011;2496;52.468;13.342;2022-08-01T09:16:41;2.77;;;2.47;;
4961;SDS011;2496;52.468;13.342;2022-08-01T09:19:10;3.63;;;2.30;;
4961;SDS011;2496;52.468;13.342;2022-08-01T09:21:40;4.33;;;2.67;;
4961;SDS011;2496;52.468;13.342;2022-08-01T09:24:20;4.30;;;2.20;;
4961;SDS011;2496;52.468;13.342;2022-08-01T09:26:47;4.03;;;2.80;;
4961;SDS011;2496;52.468;13.342;2022-08-01T09:29:19;4.83;;;2.50;;
4961;SDS011;2496;52.468;13.342;2022-08-01T09:31:47;3.37;;;2.73;;
4961;SDS011;2496;52.468;13.342;2022-08-01T09:34:14;8.73;;;2.27;;
4961;SDS011;2496;52.468;13.342;2022-08-01T09:36:46;5.40;;;4.00;;
4961;SDS011;2496;52.468;13.342;2022-08-01T09:39:16;4.53;;;2.80;;
4961;SDS011;2496;52.468;13.342;2022-08-01T09:41:44;4.13;;;3.73;;
4961;SDS011;2496;52.468;13.342;2022-08-01T09:44:12;5.10;;;2.63;;
4961;SDS011;2496;52.468;13.342;2022-08-01T09:46:50;3.80;;;2.70;;
4961;SDS011;2496;52.468;13.342;2022-08-01T09:49:28;4.93;;;2.40;;
4961;SDS011;2496;52.468;13.342;2022-08-01T09:51:56;3.50;;;2.77;;
4961;SDS011;2496;52.468;13.342;2022-08-01T09:54:28;4.20;;;2.83;;
4961;SDS011;2496;52.468;13.342;2022-08-01T09:57:10;4.37;;;2.90;;
4961;SDS011;2496;52.468;13.342;2022-08-01T09:59:39;5.40;;;2.73;;
4961;SDS011;2496;52.468;13.342;2022-08-01T10:02:10;2.77;;;2.47;;
4961;SDS011;2496;52.468;13.342;2022-08-01T10:04:46;2.30;;;2.10;;
4961;SDS011;2496;52.468;13.342;2022-08-01T10:07:14;4.23;;;2.43;;
4961;SDS011;2496;52.468;13.342;2022-08-01T10:09:42;7.27;;;2.33;;
4961;SDS011;2496;52.468;13.342;2022-08-01T10:12:10;3.07;;;2.00;;
4961;SDS011;2496;52.468;13.342;2022-08-01T10:14:39;2.40;;;2.20;;
4961;SDS011;2496;52.468;13.342;2022-08-01T10:17:08;2.90;;;2.30;;
4961;SDS011;2496;52.468;13.342;2022-08-01T10:19:38;4.70;;;3.40;;
4961;SDS011;2496;52.468;13.342;2022-08-01T10:22:07;3.73;;;2.33;;
4961;SDS011;2496;52.468;13.342;2022-08-01T10:24:36;2.70;;;2.50;;
4961;SDS011;2496;52.468;13.342;2022-08-01T10:27:04;6.93;;;1.93;;
4961;SDS011;2496;52.468;13.342;2022-08-01T10:29:34;2.87;;;2.20;;
4961;SDS011;2496;52.468;13.342;2022-08-01T10:32:03;3.73;;;2.40;;
4961;SDS011;2496;52.468;13.342;2022-08-01T10:34:32;4.73;;;3.17;;
4961;SDS011;2496;52.468;13.342;2022-08-01T10:37:00;2.90;;;2.60;;
4961;SDS011;2496;52.468;13.342;2022-08-01T10:39:27;4.97;;;3.10;;
4961;SDS011;2496;52.468;13.342;2022-08-01T10:41:56;5.97;;;2.30;;
4961;SDS011;2496;52.468;13.342;2022-08-01T10:44:23;5.77;;;3.30;;
4961;SDS011;2496;52.468;13.342;2022-08-01T10:46:54;2.90;;;2.40;;
4961;SDS011;2496;52.468;13.342;2022-08-01T10:49:25;4.10;;;2.40;;
4961;SDS011;2496;52.468;13.342;2022-08-01T10:51:56;5.53;;;2.77;;
4961;SDS011;2496;52.468;13.342;2022-08-01T10:54:24;2.03;;;1.90;;
4961;SDS011;2496;52.468;13.342;2022-08-01T10:56:52;3.47;;;2.30;;
4961;SDS011;2496;52.468;13.342;2022-08-01T10:59:22;2.13;;;1.93;;
4961;SDS011;2496;52.468;13.342;2022-08-01T11:01:58;4.23;;;2.17;;
4961;SDS011;2496;52.468;13.342;2022-08-01T11:04:33;2.47;;;2.10;;
4961;SDS011;2496;52.468;13.342;2022-08-01T11:07:11;4.17;;;2.13;;
4961;SDS011;2496;52.468;13.342;2022-08-01T11:09:44;2.03;;;1.83;;
4961;SDS011;2496;52.468;13.342;2022-08-01T11:12:13;9.73;;;8.03;;
4961;SDS011;2496;52.468;13.342;2022-08-01T11:17:50;6.10;;;4.43;;
4961;SDS011;2496;52.468;13.342;2022-08-01T11:20:18;2.90;;;1.87;;
4961;SDS011;2496;52.468;13.342;2022-08-01T11:26:07;3.10;;;2.07;;
4961;SDS011;2496;52.468;13.342;2022-08-01T11:28:41;2.90;;;2.10;;
4961;SDS011;2496;52.468;13.342;2022-08-01T11:31:26;2.67;;;1.87;;
4961;SDS011;2496;52.468;13.342;2022-08-01T11:33:57;2.47;;;2.10;;
4961;SDS011;2496;52.468;13.342;2022-08-01T11:36:25;3.43;;;2.07;;
4961;SDS011;2496;52.468;13.342;2022-08-01T11:39:12;3.00;;;2.13;;
4961;SDS011;2496;52.468;13.342;2022-08-01T11:41:44;3.00;;;2.47;;
4961;SDS011;2496;52.468;13.342;2022-08-01T11:44:14;3.80;;;2.40;;
4961;SDS011;2496;52.468;13.342;2022-08-01T11:46:46;3.00;;;2.00;;
4961;SDS011;2496;52.468;13.342;2022-08-01T11:49:32;2.43;;;2.20;;
4961;SDS011;2496;52.468;13.342;2022-08-01T11:52:25;2.60;;;2.03;;
4961;SDS011;2496;52.468;13.342;2022-08-01T11:54:53;5.27;;;2.17;;
4961;SDS011;2496;52.468;13.342;2022-08-01T11:57:24;5.07;;;2.50;;
4961;SDS011;2496;52.468;13.342;2022-08-01T11:59:55;2.73;;;2.37;;
4961;SDS011;2496;52.468;13.342;2022-08-01T12:02:24;3.47;;;2.27;;
4961;SDS011;2496;52.468;13.342;2022-08-01T12:04:53;3.20;;;2.67;;
4961;SDS011;2496;52.468;13.342;2022-08-01T12:07:22;7.07;;;3.00;;
4961;SDS011;2496;52.468;13.342;2022-08-01T12:09:56;2.27;;;2.07;;
4961;SDS011;2496;52.468;13.342;2022-08-01T12:12:27;2.80;;;2.60;;
4961;SDS011;2496;52.468;13.342;2022-08-01T12:14:55;5.60;;;2.50;;
4961;SDS011;2496;52.468;13.342;2022-08-01T12:17:28;2.60;;;1.47;;
4961;SDS011;2496;52.468;13.342;2022-08-01T12:19:55;3.17;;;1.50;;
4961;SDS011;2496;52.468;13.342;2022-08-01T12:22:22;3.90;;;1.50;;
4961;SDS011;2496;52.468;13.342;2022-08-01T12:24:50;5.67;;;1.73;;
4961;SDS011;2496;52.468;13.342;2022-08-01T12:27:24;5.60;;;2.33;;
4961;SDS011;2496;52.468;13.342;2022-08-01T12:29:54;3.40;;;1.50;;
4961;SDS011;2496;52.468;13.342;2022-08-01T12:32:22;2.47;;;1.87;;
4961;SDS011;2496;52.468;13.342;2022-08-01T12:34:52;6.73;;;1.67;;
4961;SDS011;2496;52.468;13.342;2022-08-01T12:37:20;1.90;;;1.70;;
4961;SDS011;2496;52.468;13.342;2022-08-01T12:39:47;4.70;;;1.67;;
4961;SDS011;2496;52.468;13.342;2022-08-01T12:42:14;1.80;;;1.70;;
4961;SDS011;2496;52.468;13.342;2022-08-01T12:44:44;7.43;;;2.10;;
4961;SDS011;2496;52.468;13.342;2022-08-01T12:47:14;5.13;;;2.33;;
4961;SDS011;2496;52.468;13.342;2022-08-01T12:49:41;4.43;;;1.70;;
4961;SDS011;2496;52.468;13.342;2022-08-01T12:52:10;2.07;;;1.87;;
4961;SDS011;2496;52.468;13.342;2022-08-01T12:57:31;2.70;;;2.03;;
4961;SDS011;2496;52.468;13.342;2022-08-01T13:00:10;1.60;;;1.50;;
4961;SDS011;2496;52.468;13.342;2022-08-01T13:02:43;6.10;;;2.00;;
4961;SDS011;2496;52.468;13.342;2022-08-01T13:05:10;5.27;;;1.67;;
4961;SDS011;2496;52.468;13.342;2022-08-01T13:07:43;3.03;;;1.83;;
4961;SDS011;2496;52.468;13.342;2022-08-01T13:10:12;2.97;;;1.70;;
4961;SDS011;2496;52.468;13.342;2022-08-01T13:12:40;2.50;;;2.00;;
4961;SDS011;2496;52.468;13.342;2022-08-01T13:15:22;2.50;;;1.80;;
4961;SDS011;2496;52.468;13.342;2022-08-01T13:17:51;2.40;;;2.10;;
4961;SDS011;2496;52.468;13.342;2022-08-01T13:20:23;2.67;;;2.10;;
4961;SDS011;2496;52.468;13.342;2022-08-01T13:22:51;4.50;;;2.13;;
4961;SDS011;2496;52.468;13.342;2022-08-01T13:25:18;4.47;;;1.93;;
4961;SDS011;2496;52.468;13.342;2022-08-01T13:27:45;3.83;;;2.67;;
4961;SDS011;2496;52.468;13.342;2022-08-01T13:30:12;3.70;;;2.50;;
4961;SDS011;2496;52.468;13.342;2022-08-01T13:32:42;1.60;;;1.50;;
4961;SDS011;2496;52.468;13.342;2022-08-01T13:35:10;1.80;;;1.70;;
4961;SDS011;2496;52.468;13.342;2022-08-01T13:37:39;5.97;;;2.03;;
4961;SDS011;2496;52.468;13.342;2022-08-01T13:40:08;3.63;;;1.73;;
4961;SDS011;2496;52.468;13.342;2022-08-01T13:42:36;6.50;;;1.90;;
4961;SDS011;2496;52.468;13.342;2022-08-01T13:45:04;1.73;;;1.40;;
4961;SDS011;2496;52.468;13.342;2022-08-01T13:47:35;4.70;;;1.33;;
4961;SDS011;2496;52.468;13.342;2022-08-01T13:50:04;3.57;;;2.10;;
4961;SDS011;2496;52.468;13.342;2022-08-01T13:52:31;3.67;;;1.47;;
4961;SDS011;2496;52.468;13.342;2022-08-01T13:54:58;2.00;;;1.80;;
4961;SDS011;2496;52.468;13.342;2022-08-01T13:57:26;3.20;;;2.00;;
4961;SDS011;2496;52.468;13.342;2022-08-01T13:59:53;2.17;;;1.97;;
4961;SDS011;2496;52.468;13.342;2022-08-01T14:02:20;2.67;;;1.67;;
4961;SDS011;2496;52.468;13.342;2022-08-01T14:04:47;2.83;;;1.23;;
4961;SDS011;2496;52.468;13.342;2022-08-01T14:07:15;1.50;;;1.40;;
4961;SDS011;2496;52.468;13.342;2022-08-01T14:09:42;3.30;;;1.13;;
4961;SDS011;2496;52.468;13.342;2022-08-01T14:12:09;1.93;;;1.40;;
4961;SDS011;2496;52.468;13.342;2022-08-01T14:14:36;2.40;;;1.50;;
4961;SDS011;2496;52.468;13.342;2022-08-01T14:17:03;2.30;;;1.40;;
4961;SDS011;2496;52.468;13.342;2022-08-01T14:19:30;2.57;;;1.37;;
4961;SDS011;2496;52.468;13.342;2022-08-01T14:21:57;1.60;;;1.50;;
4961;SDS011;2496;52.468;13.342;2022-08-01T14:24:26;1.97;;;1.50;;
4961;SDS011;2496;52.468;13.342;2022-08-01T14:26:53;3.93;;;2.00;;
4961;SDS011;2496;52.468;13.342;2022-08-01T14:29:20;2.20;;;1.20;;
4961;SDS011;2496;52.468;13.342;2022-08-01T14:31:47;3.37;;;1.53;;
4961;SDS011;2496;52.468;13.342;2022-08-01T14:34:13;1.83;;;1.60;;
4961;SDS011;2496;52.468;13.342;2022-08-01T14:36:41;1.23;;;1.13;;
4961;SDS011;2496;52.468;13.342;2022-08-01T14:39:08;1.80;;;1.30;;
4961;SDS011;2496;52.468;13.342;2022-08-01T14:41:36;1.50;;;1.40;;
4961;SDS011;2496;52.468;13.342;2022-08-01T14:44:03;3.17;;;1.67;;
4961;SDS011;2496;52.468;13.342;2022-08-01T14:46:30;1.87;;;1.20;;
4961;SDS011;2496;52.468;13.342;2022-08-01T14:48:57;2.27;;;1.37;;
4961;SDS011;2496;52.468;13.342;2022-08-01T14:51:24;2.80;;;1.60;;
4961;SDS011;2496;52.468;13.342;2022-08-01T14:53:51;1.97;;;1.70;;
4961;SDS011;2496;52.468;13.342;2022-08-01T14:56:19;2.00;;;1.23;;
4961;SDS011;2496;52.468;13.342;2022-08-01T14:58:47;1.20;;;1.10;;
4961;SDS011;2496;52.468;13.342;2022-08-01T15:01:14;2.97;;;1.53;;
4961;SDS011;2496;52.468;13.342;2022-08-01T15:03:41;2.90;;;1.10;;
4961;SDS011;2496;52.468;13.342;2022-08-01T15:06:08;5.07;;;1.80;;
4961;SDS011;2496;52.468;13.342;2022-08-01T15:08:36;6.60;;;1.83;;
4961;SDS011;2496;52.468;13.342;2022-08-01T15:11:03;8.63;;;1.67;;
4961;SDS011;2496;52.468;13.342;2022-08-01T15:13:30;3.53;;;1.77;;
4961;SDS011;2496;52.468;13.342;2022-08-01T15:15:59;3.17;;;1.80;;
4961;SDS011;2496;52.468;13.342;2022-08-01T15:18:27;2.13;;;1.93;;
4961;SDS011;2496;52.468;13.342;2022-08-01T15:20:54;2.83;;;1.43;;
4961;SDS011;2496;52.468;13.342;2022-08-01T15:23:22;2.60;;;1.87;;